createdAt,value
2019-04-14T00:00:46.851Z,7.73
2019-04-14T00:03:28.207Z,8.17
2019-04-14T00:06:00.428Z,8.50
2019-04-14T00:08:30.598Z,8.87
2019-04-14T00:11:00.193Z,8.23
2019-04-14T00:13:30.657Z,8.03
2019-04-14T00:16:00.935Z,8.60
2019-04-14T00:18:31.574Z,8.00
2019-04-14T00:21:02.182Z,8.67
2019-04-14T00:23:32.661Z,8.60
2019-04-14T00:26:22.624Z,8.27
2019-04-14T00:28:53.390Z,7.93
2019-04-14T00:31:23.908Z,8.30
2019-04-14T00:33:56.294Z,8.87
2019-04-14T00:36:45.963Z,9.67
2019-04-14T00:39:22.977Z,8.10
2019-04-14T00:41:59.920Z,8.87
2019-04-14T00:44:47.436Z,8.37
2019-04-14T00:47:22.161Z,8.93
2019-04-14T00:49:52.901Z,8.03
2019-04-14T00:52:23.361Z,8.53
2019-04-14T00:54:54.235Z,8.93
2019-04-14T00:57:24.740Z,8.07
2019-04-14T00:59:55.241Z,9.67
2019-04-14T01:02:25.359Z,8.63
2019-04-14T01:04:55.547Z,8.83
2019-04-14T01:07:26.169Z,8.97
2019-04-14T01:09:55.868Z,8.90
2019-04-14T01:12:25.763Z,9.37
2019-04-14T01:14:56.019Z,8.97
2019-04-14T01:17:26.502Z,9.43
2019-04-14T01:19:57.004Z,9.73
2019-04-14T01:22:27.095Z,10.77
2019-04-14T01:24:57.568Z,11.80
2019-04-14T01:27:27.770Z,12.50
2019-04-14T01:29:58.145Z,12.97
2019-04-14T01:32:28.303Z,11.70
2019-04-14T01:34:58.924Z,11.03
2019-04-14T01:37:29.076Z,11.20
2019-04-14T01:39:58.957Z,10.87
2019-04-14T01:42:28.945Z,9.90
2019-04-14T01:44:59.252Z,10.57
2019-04-14T01:47:29.210Z,10.07
2019-04-14T01:49:59.502Z,10.23
2019-04-14T01:52:34.129Z,9.27
2019-04-14T01:55:13.368Z,10.20
2019-04-14T01:57:48.251Z,11.63
2019-04-14T02:00:20.648Z,9.63
2019-04-14T02:02:50.955Z,8.73
2019-04-14T02:05:21.392Z,8.60
2019-04-14T02:07:51.582Z,9.37
2019-04-14T02:10:21.651Z,8.37
2019-04-14T02:12:51.765Z,8.17
2019-04-14T02:15:22.261Z,9.23
2019-04-14T02:17:52.415Z,8.13
2019-04-14T02:20:22.940Z,9.07
2019-04-14T02:22:53.285Z,8.63
2019-04-14T02:25:23.137Z,8.87
2019-04-14T02:27:53.660Z,9.27
2019-04-14T02:30:30.655Z,8.50
2019-04-14T02:33:26.102Z,8.60
2019-04-14T02:35:59.695Z,8.77
2019-04-14T02:38:33.853Z,9.33
2019-04-14T02:41:14.270Z,8.90
2019-04-14T02:43:30.365Z,8.73
2019-04-14T02:48:38.176Z,8.00
2019-04-14T02:50:56.101Z,9.83
2019-04-14T02:53:32.634Z,7.87
2019-04-14T02:56:11.972Z,8.97
2019-04-14T03:03:33.879Z,8.17
2019-04-14T03:06:08.753Z,7.90
2019-04-14T03:08:47.642Z,9.50
2019-04-14T03:11:03.701Z,8.50
2019-04-14T03:13:35.123Z,8.00
2019-04-14T03:16:07.914Z,8.23
2019-04-14T03:18:44.617Z,8.00
2019-04-14T03:26:44.709Z,7.97
2019-04-14T03:29:40.818Z,8.17
2019-04-14T03:32:14.262Z,7.50
2019-04-14T03:39:36.564Z,7.30
2019-04-14T03:42:00.394Z,7.90
2019-04-14T03:47:06.848Z,6.87
2019-04-14T03:49:32.258Z,6.63
2019-04-14T03:51:57.914Z,6.73
2019-04-14T03:54:26.164Z,7.30
2019-04-14T03:56:53.330Z,6.60
2019-04-14T03:59:24.061Z,7.30
2019-04-14T04:01:54.465Z,7.03
2019-04-14T04:04:24.841Z,6.97
2019-04-14T04:06:55.215Z,6.93
2019-04-14T04:09:27.749Z,7.63
2019-04-14T04:11:57.017Z,6.47
2019-04-14T04:14:27.090Z,7.37
2019-04-14T04:16:59.374Z,7.40
2019-04-14T04:19:35.936Z,7.03
2019-04-14T04:22:19.322Z,7.40
2019-04-14T04:24:50.117Z,6.87
2019-04-14T04:27:37.563Z,6.83
2019-04-14T04:30:12.254Z,8.00
2019-04-14T04:32:55.831Z,6.83
2019-04-14T04:35:32.717Z,7.57
2019-04-14T04:38:04.978Z,6.87
2019-04-14T04:40:35.336Z,7.13
2019-04-14T04:43:05.898Z,6.73
2019-04-14T04:45:35.099Z,7.03
2019-04-14T04:48:04.548Z,6.53
2019-04-14T04:50:34.644Z,6.10
2019-04-14T04:53:04.832Z,7.10
2019-04-14T04:55:35.078Z,6.67
2019-04-14T04:58:05.537Z,7.37
2019-04-14T05:00:35.255Z,6.83
2019-04-14T05:03:04.400Z,6.60
2019-04-14T05:06:05.156Z,6.73
2019-04-14T05:08:35.501Z,7.03
2019-04-14T05:11:07.510Z,6.73
2019-04-14T05:13:38.156Z,7.20
2019-04-14T05:16:08.528Z,6.60
2019-04-14T05:18:37.841Z,7.13
2019-04-14T05:21:08.101Z,6.67
2019-04-14T05:23:37.337Z,6.87
2019-04-14T05:26:07.089Z,6.83
2019-04-14T05:28:37.319Z,6.57
2019-04-14T05:31:07.525Z,6.50
2019-04-14T05:33:36.648Z,7.00
2019-04-14T05:36:06.331Z,7.27
2019-04-14T05:38:36.933Z,7.13
2019-04-14T05:41:06.985Z,6.40
2019-04-14T05:43:45.020Z,6.43
2019-04-14T05:46:07.761Z,6.07
2019-04-14T05:48:38.082Z,6.07
2019-04-14T05:51:08.501Z,7.00
2019-04-14T05:53:38.002Z,6.67
2019-04-14T05:56:07.911Z,6.10
2019-04-14T05:58:38.203Z,5.50
2019-04-14T06:01:08.983Z,6.13
2019-04-14T06:03:38.649Z,6.17
2019-04-14T06:06:07.791Z,5.80
2019-04-14T06:08:37.248Z,5.70
2019-04-14T06:11:06.472Z,6.07
2019-04-14T06:13:35.522Z,6.33
2019-04-14T06:16:04.642Z,5.83
2019-04-14T06:18:33.761Z,5.20
2019-04-14T06:21:03.209Z,5.80
2019-04-14T06:23:32.757Z,5.63
2019-04-14T06:26:01.967Z,6.20
2019-04-14T06:28:31.019Z,5.57
2019-04-14T06:31:01.782Z,6.57
2019-04-14T06:33:32.537Z,4.93
2019-04-14T06:36:21.201Z,5.93
2019-04-14T06:38:51.892Z,6.27
2019-04-14T06:41:20.945Z,5.20
2019-04-14T06:43:50.005Z,5.20
2019-04-14T06:46:19.126Z,4.60
2019-04-14T06:48:48.197Z,3.63
2019-04-14T06:51:17.336Z,5.27
2019-04-14T06:53:46.833Z,4.87
2019-04-14T06:56:15.985Z,5.43
2019-04-14T06:58:45.393Z,5.27
2019-04-14T07:01:14.934Z,4.50
2019-04-14T07:03:44.065Z,4.80
2019-04-14T07:06:13.183Z,4.73
2019-04-14T07:08:42.561Z,5.43
2019-04-14T07:11:11.783Z,5.20
2019-04-14T07:13:40.905Z,5.10
2019-04-14T07:16:09.958Z,4.83
2019-04-14T07:18:39.002Z,4.73
2019-04-14T07:21:08.054Z,5.53
2019-04-14T07:23:37.506Z,5.83
2019-04-14T07:26:11.609Z,5.30
2019-04-14T07:28:41.059Z,5.70
2019-04-14T07:31:17.582Z,4.80
2019-04-14T07:34:00.610Z,4.37
2019-04-14T07:36:40.341Z,4.87
2019-04-14T07:39:20.050Z,4.80
2019-04-14T07:41:53.777Z,5.60
2019-04-14T07:44:24.908Z,5.20
2019-04-14T07:46:55.801Z,4.70
2019-04-14T07:49:26.567Z,3.90
2019-04-14T07:52:13.199Z,5.70
2019-04-14T07:55:00.309Z,5.03
2019-04-14T07:57:31.417Z,5.60
2019-04-14T08:00:08.093Z,5.07
2019-04-14T08:02:41.806Z,5.63
2019-04-14T08:05:12.713Z,4.17
2019-04-14T08:07:42.863Z,5.67
2019-04-14T08:10:12.137Z,4.83
2019-04-14T08:12:41.249Z,6.13
2019-04-14T08:15:10.369Z,5.53
2019-04-14T08:17:39.488Z,6.30
2019-04-14T08:20:08.773Z,5.70
2019-04-14T08:22:37.889Z,6.40
2019-04-14T08:25:07.909Z,6.37
2019-04-14T08:27:37.417Z,6.13
2019-04-14T08:30:08.534Z,5.47
2019-04-14T08:32:37.721Z,6.10
2019-04-14T08:35:06.947Z,5.33
2019-04-14T08:37:35.993Z,5.60
2019-04-14T08:40:06.233Z,4.50
2019-04-14T08:42:43.217Z,3.83
2019-04-14T08:45:13.999Z,3.33
2019-04-14T08:47:56.893Z,4.23
2019-04-14T08:50:39.450Z,5.03
2019-04-14T08:53:12.581Z,5.07
2019-04-14T08:55:43.670Z,4.20
2019-04-14T08:58:20.765Z,5.00
2019-04-14T09:00:57.610Z,4.57
2019-04-14T09:03:28.922Z,5.17
2019-04-14T09:06:02.512Z,5.37
2019-04-14T09:08:33.610Z,4.70
2019-04-14T09:11:07.233Z,4.50
2019-04-14T09:13:36.360Z,6.77
2019-04-14T09:16:05.518Z,5.87
2019-04-14T09:18:34.984Z,5.20
2019-04-14T09:21:04.293Z,5.67
2019-04-14T09:23:33.433Z,6.17
2019-04-14T09:26:02.995Z,4.70
2019-04-14T09:28:32.293Z,6.33
2019-04-14T09:31:01.745Z,7.07
2019-04-14T09:33:30.955Z,7.47
2019-04-14T09:36:00.013Z,4.80
2019-04-14T09:38:29.558Z,5.40
2019-04-14T09:40:59.305Z,4.83
2019-04-14T09:43:28.939Z,5.23
2019-04-14T09:45:58.257Z,3.63
2019-04-14T09:48:27.802Z,5.33
2019-04-14T09:51:04.779Z,5.80
2019-04-14T09:53:27.766Z,5.13
2019-04-14T09:55:57.185Z,5.70
2019-04-14T09:58:26.497Z,6.53
2019-04-14T10:00:55.554Z,6.07
2019-04-14T10:03:24.669Z,5.33
2019-04-14T10:06:04.121Z,6.00
2019-04-14T10:08:33.746Z,5.23
2019-04-14T10:11:03.033Z,7.03
2019-04-14T10:13:32.165Z,7.33
2019-04-14T10:16:01.689Z,7.60
2019-04-14T10:18:30.907Z,6.50
2019-04-14T10:21:00.033Z,5.63
2019-04-14T10:23:29.432Z,6.13
2019-04-14T10:25:58.983Z,6.50
2019-04-14T10:28:28.613Z,6.87
2019-04-14T10:30:58.157Z,7.57
2019-04-14T10:33:27.470Z,8.63
2019-04-14T10:35:57.108Z,6.20
2019-04-14T10:38:26.784Z,7.53
2019-04-14T10:40:56.142Z,7.33
2019-04-14T10:43:25.589Z,7.20
2019-04-14T10:45:54.805Z,6.90
2019-04-14T10:48:24.024Z,6.33
2019-04-14T10:50:53.145Z,6.23
2019-04-14T10:53:22.273Z,7.27
2019-04-14T10:55:51.733Z,8.37
2019-04-14T10:58:21.149Z,6.73
2019-04-14T11:00:50.198Z,6.67
2019-04-14T11:03:19.669Z,5.97
2019-04-14T11:05:59.522Z,4.93
2019-04-14T11:08:28.977Z,6.47
2019-04-14T11:10:58.388Z,7.23
2019-04-14T11:13:27.509Z,6.53
2019-04-14T11:15:56.633Z,8.60
2019-04-14T11:18:25.763Z,8.20
2019-04-14T11:20:55.321Z,9.57
2019-04-14T11:23:25.337Z,5.00
2019-04-14T11:25:54.461Z,6.77
2019-04-14T11:28:23.580Z,5.67
2019-04-14T11:30:52.978Z,8.57
2019-04-14T11:33:26.994Z,7.53
2019-04-14T11:36:06.860Z,7.80
2019-04-14T11:38:37.721Z,7.20
2019-04-14T11:41:17.611Z,7.73
2019-04-14T11:43:47.085Z,7.37
2019-04-14T11:46:16.334Z,9.17
2019-04-14T11:48:45.794Z,6.07
2019-04-14T11:51:15.202Z,6.90
2019-04-14T11:53:44.500Z,7.40
2019-04-14T11:56:18.931Z,9.53
2019-04-14T11:58:48.300Z,8.77
2019-04-14T12:01:22.391Z,9.07
2019-04-14T12:03:56.265Z,9.53
2019-04-14T12:06:46.797Z,9.30
2019-04-14T12:09:23.450Z,10.23
2019-04-14T12:11:53.015Z,8.20
2019-04-14T12:14:22.486Z,9.40
2019-04-14T12:16:51.969Z,7.43
2019-04-14T12:19:21.182Z,7.87
2019-04-14T12:21:50.310Z,8.60
2019-04-14T12:24:19.861Z,9.07
2019-04-14T12:26:49.418Z,9.53
2019-04-14T12:29:19.052Z,7.80
2019-04-14T12:31:49.025Z,8.73
2019-04-14T12:34:18.601Z,7.63
2019-04-14T12:36:47.841Z,9.33
2019-04-14T12:39:21.416Z,6.70
2019-04-14T12:42:00.829Z,8.97
2019-04-14T12:44:34.632Z,8.53
2019-04-14T12:49:54.014Z,9.33
2019-04-14T12:52:27.824Z,8.60
2019-04-14T12:55:16.697Z,9.13
2019-04-14T12:57:50.643Z,9.30
2019-04-14T13:00:21.976Z,6.43
2019-04-14T13:02:54.946Z,8.63
2019-04-14T13:05:24.082Z,9.10
2019-04-14T13:07:53.224Z,9.17
2019-04-14T13:10:22.677Z,10.40
2019-04-14T13:12:52.226Z,8.50
2019-04-14T13:15:41.105Z,7.83
2019-04-14T13:18:10.281Z,6.37
2019-04-14T13:20:39.727Z,7.17
2019-04-14T13:23:09.194Z,8.30
2019-04-14T13:25:38.746Z,8.90
2019-04-14T13:28:08.409Z,9.87
2019-04-14T13:30:39.598Z,9.33
2019-04-14T13:33:08.805Z,7.57
2019-04-14T13:35:38.198Z,6.93
2019-04-14T13:38:07.406Z,8.47
2019-04-14T13:40:37.057Z,9.13
2019-04-14T13:43:06.658Z,8.60
2019-04-14T13:45:36.433Z,7.97
2019-04-14T13:48:05.909Z,8.87
2019-04-14T13:50:35.489Z,9.13
2019-04-14T13:53:05.041Z,9.03
2019-04-14T13:55:34.581Z,9.57
2019-04-14T13:58:04.226Z,7.70
2019-04-14T14:00:33.865Z,8.37
2019-04-14T14:03:03.409Z,8.93
2019-04-14T14:05:43.738Z,9.83
2019-04-14T14:08:13.497Z,9.03
2019-04-14T14:10:43.038Z,6.30
2019-04-14T14:13:19.900Z,5.83
2019-04-14T14:16:07.282Z,7.13
2019-04-14T14:18:38.392Z,6.13
2019-04-14T14:21:09.565Z,6.60
2019-04-14T14:23:52.605Z,6.23
2019-04-14T14:26:28.665Z,5.83
2019-04-14T14:28:58.209Z,5.80
2019-04-14T14:31:27.757Z,4.63
2019-04-14T14:33:57.413Z,6.63
2019-04-14T14:36:27.090Z,6.10
2019-04-14T14:38:57.338Z,6.20
2019-04-14T14:41:26.964Z,6.20
2019-04-14T14:43:56.255Z,5.53
2019-04-14T14:46:39.400Z,6.17
2019-04-14T14:49:10.645Z,6.00
2019-04-14T14:51:59.513Z,6.17
2019-04-14T14:54:28.728Z,5.90
2019-04-14T14:56:59.212Z,4.97
2019-04-14T14:59:28.771Z,5.63
2019-04-14T15:01:58.453Z,5.27
2019-04-14T15:04:27.935Z,6.07
2019-04-14T15:07:02.459Z,5.17
2019-04-14T15:09:32.019Z,5.43
2019-04-14T15:12:01.661Z,5.43
2019-04-14T15:14:31.147Z,5.17
2019-04-14T15:17:00.749Z,5.87
2019-04-14T15:19:30.229Z,5.97
2019-04-14T15:21:59.837Z,6.07
2019-04-14T15:24:29.587Z,4.30
2019-04-14T15:26:58.880Z,5.07
2019-04-14T15:29:28.413Z,5.03
2019-04-14T15:31:57.725Z,5.17
2019-04-14T15:34:27.173Z,4.90
2019-04-14T15:36:56.385Z,3.67
2019-04-14T15:39:25.957Z,5.43
2019-04-14T15:41:55.527Z,4.13
2019-04-14T15:44:25.133Z,4.93
2019-04-14T15:47:04.474Z,5.17
2019-04-14T15:49:33.875Z,4.47
2019-04-14T15:52:03.562Z,5.57
2019-04-14T15:54:33.101Z,5.23
2019-04-14T15:57:13.579Z,4.27
2019-04-14T15:59:44.716Z,4.87
2019-04-14T16:02:21.817Z,4.93
2019-04-14T16:05:09.437Z,4.97
2019-04-14T16:07:40.563Z,5.20
2019-04-14T16:10:14.468Z,4.43
2019-04-14T16:12:45.709Z,4.70
2019-04-14T16:15:16.881Z,5.50
2019-04-14T16:18:06.148Z,5.47
2019-04-14T16:20:37.333Z,4.97
2019-04-14T16:23:06.546Z,4.60
2019-04-14T16:25:37.649Z,5.97
2019-04-14T16:28:08.836Z,5.53
2019-04-14T16:30:45.501Z,5.23
2019-04-14T16:33:22.229Z,5.57
2019-04-14T16:35:51.846Z,5.63
2019-04-14T16:38:21.405Z,5.00
2019-04-14T16:40:50.714Z,5.20
2019-04-14T16:43:20.225Z,4.80
2019-04-14T16:45:49.770Z,5.80
2019-04-14T16:48:19.337Z,5.40
2019-04-14T16:50:48.890Z,5.43
2019-04-14T16:53:32.121Z,4.13
2019-04-14T16:56:08.349Z,5.37
2019-04-14T16:58:59.148Z,5.37
2019-04-14T17:01:33.182Z,6.27
2019-04-14T17:04:02.657Z,6.43
2019-04-14T17:06:32.135Z,6.00
2019-04-14T17:09:01.613Z,5.40
2019-04-14T17:11:31.157Z,5.83
2019-04-14T17:14:08.393Z,5.60
2019-04-14T17:16:45.665Z,5.53
2019-04-14T17:19:19.503Z,6.73
2019-04-14T17:22:08.661Z,5.70
2019-04-14T17:24:42.201Z,5.53
2019-04-14T17:27:13.391Z,5.10
2019-04-14T17:29:50.377Z,5.40
2019-04-14T17:32:27.337Z,5.40
2019-04-14T17:38:06.897Z,5.80
2019-04-14T17:40:38.084Z,5.00
2019-04-14T17:43:11.857Z,4.90
2019-04-14T17:45:45.709Z,4.97
2019-04-14T17:48:16.916Z,4.60
2019-04-14T17:50:51.146Z,5.43
2019-04-14T17:53:22.376Z,5.47
2019-04-14T17:56:11.615Z,4.80
2019-04-14T17:59:08.091Z,5.50
2019-04-14T18:01:57.837Z,5.37
2019-04-14T18:04:41.221Z,4.40
2019-04-14T18:07:18.429Z,4.07
2019-04-14T18:09:49.457Z,5.07
2019-04-14T18:12:20.656Z,4.37
2019-04-14T18:15:00.609Z,4.90
2019-04-14T18:17:31.796Z,5.60
2019-04-14T18:20:05.701Z,5.23
2019-04-14T18:22:35.349Z,4.40
2019-04-14T18:25:07.922Z,5.73
2019-04-14T18:27:39.089Z,5.63
2019-04-14T18:30:17.459Z,5.27
2019-04-14T18:32:49.570Z,4.87
2019-04-14T18:35:40.002Z,5.57
2019-04-14T18:38:11.120Z,5.00
2019-04-14T18:40:54.465Z,5.67
2019-04-14T18:43:34.881Z,5.63
2019-04-14T18:46:08.714Z,5.53
2019-04-14T18:48:40.012Z,6.10
2019-04-14T18:51:23.533Z,5.33
2019-04-14T18:54:06.473Z,6.67
2019-04-14T18:56:37.667Z,3.93
2019-04-14T18:59:25.001Z,5.43
2019-04-14T19:01:55.837Z,5.53
2019-04-14T19:04:25.244Z,4.87
2019-04-14T19:06:59.650Z,5.23
2019-04-14T19:09:29.189Z,5.73
2019-04-14T19:12:06.000Z,5.37
2019-04-14T19:14:40.324Z,4.83
2019-04-14T19:17:29.457Z,5.23
2019-04-14T19:20:01.857Z,5.40
2019-04-14T19:22:31.287Z,4.73
2019-04-14T19:25:07.953Z,5.10
2019-04-14T19:27:32.476Z,4.33
2019-04-14T19:30:01.894Z,4.30
2019-04-14T19:32:31.409Z,4.67
2019-04-14T19:35:01.288Z,4.67
2019-04-14T19:37:30.723Z,5.33
2019-04-14T19:40:01.085Z,5.63
2019-04-14T19:42:31.168Z,5.03
2019-04-14T19:45:00.755Z,4.13
2019-04-14T19:47:30.564Z,4.30
2019-04-14T19:50:00.118Z,4.80
2019-04-14T19:52:29.598Z,4.63
2019-04-14T19:54:59.146Z,3.80
2019-04-14T19:57:33.339Z,4.07
2019-04-14T20:00:02.867Z,4.90
2019-04-14T20:02:32.322Z,4.30
2019-04-14T20:05:01.888Z,4.93
2019-04-14T20:07:31.443Z,4.33
2019-04-14T20:10:00.741Z,4.83
2019-04-14T20:12:30.773Z,4.20
2019-04-14T20:15:00.019Z,3.40
2019-04-14T20:17:31.595Z,3.80
2019-04-14T20:20:02.829Z,4.87
2019-04-14T20:22:36.474Z,6.83
2019-04-14T20:25:16.932Z,4.37
2019-04-14T20:27:50.986Z,3.80
2019-04-14T20:30:25.416Z,4.80
2019-04-14T20:32:54.577Z,4.13
2019-04-14T20:35:23.877Z,4.77
2019-04-14T20:37:53.274Z,3.67
2019-04-14T20:40:23.155Z,4.90
2019-04-14T20:42:52.769Z,4.80
2019-04-14T20:45:22.426Z,4.27
2019-04-14T20:47:51.958Z,4.73
2019-04-14T20:50:22.135Z,4.50
2019-04-14T20:52:51.677Z,4.50
2019-04-14T20:55:21.227Z,6.17
2019-04-14T20:57:50.706Z,5.00
2019-04-14T21:00:20.848Z,4.23
2019-04-14T21:02:52.042Z,3.87
2019-04-14T21:05:23.154Z,3.97
2019-04-14T21:08:10.589Z,4.03
2019-04-14T21:10:41.782Z,4.60
2019-04-14T21:13:12.898Z,5.83
2019-04-14T21:15:50.067Z,4.67
2019-04-14T21:18:21.250Z,3.90
2019-04-14T21:20:58.150Z,4.00
2019-04-14T21:23:45.622Z,3.90
2019-04-14T21:26:16.754Z,4.27
2019-04-14T21:29:02.898Z,3.30
2019-04-14T21:31:33.678Z,3.67
2019-04-14T21:34:07.398Z,3.53
2019-04-14T21:36:56.395Z,3.37
2019-04-14T21:39:43.857Z,3.80
2019-04-14T21:42:32.342Z,3.23
2019-04-14T21:45:01.473Z,2.83
2019-04-14T21:47:30.872Z,2.90
2019-04-14T21:50:00.077Z,3.30
2019-04-14T21:52:33.800Z,3.20
2019-04-14T21:55:03.701Z,3.17
2019-04-14T21:57:43.815Z,3.13
2019-04-14T22:00:26.573Z,3.67
2019-04-14T22:03:12.882Z,3.07
2019-04-14T22:05:46.438Z,2.50
2019-04-14T22:08:29.821Z,3.07
2019-04-14T22:11:03.687Z,2.50
2019-04-14T22:13:33.244Z,3.30
2019-04-14T22:16:02.454Z,2.73
2019-04-14T22:18:31.907Z,3.30
2019-04-14T22:21:01.121Z,3.60
2019-04-14T22:23:30.581Z,3.20
2019-04-14T22:25:59.729Z,3.43
2019-04-14T22:28:28.862Z,3.40
2019-04-14T22:30:58.242Z,2.90
2019-04-14T22:33:27.393Z,3.67
2019-04-14T22:35:56.454Z,3.03
2019-04-14T22:38:25.598Z,3.40
2019-04-14T22:40:55.062Z,3.37
2019-04-14T22:43:24.602Z,3.30
2019-04-14T22:45:53.813Z,3.37
2019-04-14T22:48:22.935Z,3.00
2019-04-14T22:50:51.997Z,2.60
2019-04-14T22:53:21.192Z,3.63
2019-04-14T22:55:50.398Z,2.93
2019-04-14T22:58:38.977Z,3.23
2019-04-14T23:01:21.718Z,2.70
2019-04-14T23:04:01.177Z,2.30
2019-04-14T23:06:37.849Z,2.93
2019-04-14T23:09:14.622Z,2.30
2019-04-14T23:12:03.153Z,3.37
2019-04-14T23:14:36.607Z,3.50
2019-04-14T23:17:16.153Z,3.53
2019-04-14T23:19:49.606Z,3.53
2019-04-14T23:22:36.416Z,3.03
2019-04-14T23:25:06.419Z,3.23
2019-04-14T23:27:35.957Z,3.20
2019-04-14T23:30:06.757Z,3.02
2019-04-14T23:32:35.902Z,3.47
2019-04-14T23:35:07.050Z,3.27
2019-04-14T23:37:36.209Z,3.70
2019-04-14T23:40:08.161Z,3.37
2019-04-14T23:42:37.654Z,2.57
2019-04-14T23:45:07.533Z,3.10
2019-04-14T23:47:36.589Z,3.40
2019-04-14T23:50:07.342Z,2.90
2019-04-14T23:52:36.487Z,3.70
2019-04-14T23:55:06.990Z,3.52
2019-04-14T23:57:36.414Z,3.87
